Scott AFB/Midamerica Airport
KBLV : now visible

Airfield :











YOU CAN JOIN US ON...

 
LOGIN :

Register | Disclaimer

   EN    FR    IT 

 









Legend :    VFR   Marginal VFR   IFR   Intensive IFR   Very Intensive IFR
Visi :
Ceiling :
>= 8 km
>= 3000ft
5 to 8 km
1000 to 3000 ft
1500m to 5 km
500 to 1000 ft
800 to 1500m
200 to 500 ft
< 800m
< 200 ft
Symbols :   Thunderstorms  Fog  Heavy snow  Heavy precipitations  Wind > 20 kt






- Airport Elevation : 459 ft


KBLV - Scott AFB/Midamerica

CURRENT METAR :
  • 190756Z AUTO 00000KT 3SM BR SCT090 00/00 A3016 RMK AO2 SLP220 T10041004 $

EXPIRED METARs :
  • 190656Z AUTO 00000KT 10SM FEW070 FEW090 01/01 A3014 RMK AO2 SLP213 T00110011 $
  • 190556Z AUTO 01005KT 10SM OVC095 02/02 A3011 RMK AO2 SLP203 60000 T00160016 10042 20016 400701019 53008 $

TAF TAF KBLV
Valid from the 19 at 08:00 until the 20 at 14:00 UTC


190800Z 1908/2014 VRB06KT 4800 BR SCT007 BKN080 620806 QNH3015INS
TEMPO 1909/1912 3200 BR BKN007 620079
BECMG 1911/1912 VRB06KT 9999 NSW FEW040 QNH3025INS
BECMG 1923/1924 28009KT 8000 BR FEW002 BKN010 620105 QNH3032INS
BECMG 2005/2006 28009KT 9999 NSW FEW009 QNH3035INS TX06/1921Z TNM03/2008Z
KZKC FIR / North America



MET'MAP, your aeronautical weather chart ! - Copyright ORBIFLY December 2007 - Disclaimer

ORBIFLY MET'MAP TEAM :

Programming & Development : Alexandra Zaïnal
Concept & original design : Baudouin d'Aumeries
Assistance for programming : Marc-Olivier Méhu
Technical & hardware support : Manuel Goepfert

Contact : metmap@orbifly.com




SOURCES & CREDITS :

   NOAA       Earth
Advisory